createdAt,value
2023-03-04T00:00:43.353Z,100173.59
2023-03-04T00:03:20.873Z,100175.70
2023-03-04T00:05:49.576Z,100176.50
2023-03-04T00:08:17.980Z,100180.57
2023-03-04T00:10:47.027Z,100177.38
2023-03-04T00:13:15.306Z,100173.48
2023-03-04T00:15:42.995Z,100168.00
2023-03-04T00:18:10.765Z,100171.17
2023-03-04T00:20:38.509Z,100165.80
2023-03-04T00:23:06.275Z,100169.42
2023-03-04T00:25:34.037Z,100169.85
2023-03-04T00:28:01.860Z,100161.52
2023-03-04T00:30:29.695Z,100164.48
2023-03-04T00:32:57.394Z,100156.20
2023-03-04T00:35:25.117Z,100156.63
2023-03-04T00:37:54.022Z,100151.45
2023-03-04T00:40:21.711Z,100148.98
2023-03-04T00:42:49.527Z,100141.23
2023-03-04T00:45:17.496Z,100136.63
2023-03-04T00:47:45.158Z,100131.17
2023-03-04T00:50:12.930Z,100124.95
2023-03-04T00:52:40.722Z,100121.08
2023-03-04T00:55:09.027Z,100109.41
2023-03-04T00:57:36.806Z,100112.21
2023-03-04T01:00:05.582Z,100111.46
2023-03-04T01:02:33.489Z,100110.83
2023-03-04T01:05:01.363Z,100106.56
2023-03-04T01:07:29.056Z,100101.87
2023-03-04T01:09:56.960Z,100100.44
2023-03-04T01:12:25.655Z,100092.27
2023-03-04T01:14:53.326Z,100088.73
2023-03-04T01:17:21.121Z,100091.11
2023-03-04T01:19:49.123Z,100085.52
2023-03-04T01:22:18.979Z,100082.67
2023-03-04T01:24:48.776Z,100083.30
2023-03-04T01:27:16.646Z,100084.27
2023-03-04T01:29:44.742Z,100083.30
2023-03-04T01:32:12.538Z,100078.77
2023-03-04T01:34:40.902Z,100077.41
2023-03-04T01:37:09.371Z,100070.32
2023-03-04T01:39:37.044Z,100062.20
2023-03-04T01:42:05.264Z,100058.73
2023-03-04T01:44:33.265Z,100051.84
2023-03-04T01:47:00.930Z,100046.07
2023-03-04T01:49:28.641Z,100042.86
2023-03-04T01:51:57.042Z,100027.56
2023-03-04T01:54:24.715Z,100004.65
2023-03-04T01:56:53.259Z,99984.67
2023-03-04T01:59:26.089Z,99976.30
2023-03-04T02:01:58.538Z,99970.47
2023-03-04T02:04:31.364Z,99967.41
2023-03-04T02:07:00.671Z,99959.15
2023-03-04T02:09:29.759Z,99946.44
2023-03-04T02:11:57.948Z,99950.73
2023-03-04T02:14:26.187Z,99950.14
2023-03-04T02:16:53.875Z,99943.66
2023-03-04T02:20:00.819Z,99941.59
2023-03-04T02:22:28.772Z,99937.20
2023-03-04T02:25:04.051Z,99929.59
2023-03-04T02:27:31.750Z,99924.72
2023-03-04T02:29:59.414Z,99905.58
2023-03-04T02:32:28.134Z,99897.35
2023-03-04T02:34:56.552Z,99900.12
2023-03-04T02:37:24.325Z,99895.42
2023-03-04T02:39:53.865Z,99893.09
2023-03-04T02:42:21.594Z,99891.45
2023-03-04T02:44:50.446Z,99892.55
2023-03-04T02:47:19.829Z,99893.59
2023-03-04T02:49:47.886Z,99893.48
2023-03-04T02:52:24.682Z,99893.95
2023-03-04T02:54:52.538Z,99902.98
2023-03-04T02:57:20.402Z,99906.31
2023-03-04T02:59:52.343Z,99912.26
2023-03-04T03:02:22.348Z,99909.31
2023-03-04T03:04:50.079Z,99904.15
2023-03-04T03:07:19.191Z,99906.57
2023-03-04T03:09:47.081Z,99911.16
2023-03-04T03:12:14.857Z,99910.38
2023-03-04T03:14:42.629Z,99912.67
2023-03-04T03:17:10.863Z,99907.15
2023-03-04T03:19:38.551Z,99908.48
2023-03-04T03:22:07.328Z,99909.31
2023-03-04T03:24:35.226Z,99907.48
2023-03-04T03:27:03.770Z,99900.71
2023-03-04T03:29:31.848Z,99901.20
2023-03-04T03:31:59.644Z,99899.49
2023-03-04T03:34:27.404Z,99898.60
2023-03-04T03:36:55.098Z,99891.92
2023-03-04T03:39:22.729Z,99887.39
2023-03-04T03:41:50.450Z,99886.55
2023-03-04T03:44:18.184Z,99879.29
2023-03-04T03:46:47.007Z,99873.89
2023-03-04T03:49:14.829Z,99870.30
2023-03-04T03:51:42.832Z,99870.64
2023-03-04T03:54:10.505Z,99871.72
2023-03-04T03:56:38.199Z,99873.69
2023-03-04T03:59:05.878Z,99872.27
2023-03-04T04:01:33.840Z,99871.81
2023-03-04T04:04:01.517Z,99871.67
2023-03-04T04:06:29.297Z,99873.71
2023-03-04T04:08:57.041Z,99869.37
2023-03-04T04:11:24.812Z,99873.41
2023-03-04T04:13:52.485Z,99872.39
2023-03-04T04:16:20.656Z,99870.67
2023-03-04T04:18:48.582Z,99866.44
2023-03-04T04:21:16.389Z,99867.31
2023-03-04T04:23:44.076Z,99866.54
2023-03-04T04:26:11.851Z,99868.55
2023-03-04T04:28:39.589Z,99862.34
2023-03-04T04:31:09.323Z,99861.67
2023-03-04T04:33:37.331Z,99859.36
2023-03-04T04:36:05.792Z,99863.54
2023-03-04T04:38:33.453Z,99861.67
2023-03-04T04:41:01.217Z,99859.65
2023-03-04T04:43:28.875Z,99861.77
2023-03-04T04:45:59.622Z,99861.19
2023-03-04T04:48:27.317Z,99857.77
2023-03-04T04:50:56.361Z,99855.60
2023-03-04T04:53:24.162Z,99854.64
2023-03-04T04:55:52.204Z,99849.71
2023-03-04T04:58:19.908Z,99854.64
2023-03-04T05:00:47.675Z,99849.80
2023-03-04T05:03:17.518Z,99848.80
2023-03-04T05:05:46.407Z,99849.23
2023-03-04T05:08:14.106Z,99848.13
2023-03-04T05:10:42.767Z,99847.65
2023-03-04T05:13:10.486Z,99841.58
2023-03-04T05:15:39.149Z,99848.75
2023-03-04T05:18:06.905Z,99845.13
2023-03-04T05:20:34.635Z,99842.95
2023-03-04T05:23:02.496Z,99846.36
2023-03-04T05:25:30.486Z,99839.98
2023-03-04T05:27:58.141Z,99839.88
2023-03-04T05:30:25.788Z,99843.69
2023-03-04T05:32:53.499Z,99841.21
2023-03-04T05:35:21.228Z,99833.89
2023-03-04T05:37:48.972Z,99837.38
2023-03-04T05:40:16.758Z,99834.33
2023-03-04T05:42:45.430Z,99831.96
2023-03-04T05:45:13.858Z,99836.90
2023-03-04T05:47:41.605Z,99831.82
2023-03-04T05:50:10.149Z,99832.34
2023-03-04T05:52:37.835Z,99833.14
2023-03-04T05:55:06.165Z,99839.50
2023-03-04T05:57:33.914Z,99833.72
2023-03-04T06:00:01.701Z,99832.50
2023-03-04T06:02:29.401Z,99831.23
2023-03-04T06:04:57.151Z,99827.15
2023-03-04T06:07:24.797Z,99817.36
2023-03-04T06:09:52.518Z,99823.00
2023-03-04T06:12:20.218Z,99819.80
2023-03-04T06:14:48.147Z,99816.38
2023-03-04T06:17:16.289Z,99815.60
2023-03-04T06:19:44.098Z,99811.54
2023-03-04T06:22:12.185Z,99814.76
2023-03-04T06:24:39.879Z,99807.39
2023-03-04T06:27:07.649Z,99807.41
2023-03-04T06:29:35.330Z,99800.58
2023-03-04T06:32:04.130Z,99801.29
2023-03-04T06:34:33.726Z,99803.44
2023-03-04T06:37:01.449Z,99806.58
2023-03-04T06:39:29.268Z,99804.94
2023-03-04T06:41:56.981Z,99800.17
2023-03-04T06:44:24.730Z,99802.02
2023-03-04T06:46:52.499Z,99803.36
2023-03-04T06:49:20.177Z,99801.80
2023-03-04T06:51:47.955Z,99803.33
2023-03-04T06:54:15.678Z,99805.02
2023-03-04T06:56:43.365Z,99804.13
2023-03-04T06:59:11.303Z,99803.78
2023-03-04T07:01:39.114Z,99805.65
2023-03-04T07:04:06.889Z,99804.48
2023-03-04T07:06:34.840Z,99802.68
2023-03-04T07:09:02.562Z,99813.91
2023-03-04T07:11:30.224Z,99812.36
2023-03-04T07:13:58.204Z,99809.02
2023-03-04T07:16:25.950Z,99816.42
2023-03-04T07:18:53.611Z,99812.64
2023-03-04T07:21:21.354Z,99815.48
2023-03-04T07:23:49.083Z,99809.64
2023-03-04T07:26:17.481Z,99808.00
2023-03-04T07:28:45.156Z,99807.19
2023-03-04T07:31:23.300Z,99799.93
2023-03-04T07:33:51.942Z,99801.17
2023-03-04T07:36:20.107Z,99804.00
2023-03-04T07:38:49.671Z,99797.14
2023-03-04T07:41:18.408Z,99797.19
2023-03-04T07:43:46.241Z,99792.41
2023-03-04T07:46:14.337Z,99792.58
2023-03-04T07:48:42.204Z,99786.52
2023-03-04T07:51:15.587Z,99789.83
2023-03-04T07:53:46.653Z,99787.37
2023-03-04T07:56:18.853Z,99786.42
2023-03-04T07:58:47.087Z,99784.42
2023-03-04T08:01:21.177Z,99783.52
2023-03-04T08:03:49.077Z,99784.39
2023-03-04T08:06:19.448Z,99782.48
2023-03-04T08:08:48.874Z,99781.00
2023-03-04T08:11:19.938Z,99781.27
2023-03-04T08:13:48.503Z,99786.64
2023-03-04T08:16:19.223Z,99781.52
2023-03-04T08:18:49.827Z,99780.44
2023-03-04T08:35:23.292Z,99766.91
2023-03-04T08:37:50.988Z,99760.17
2023-03-04T08:40:18.984Z,99765.68
2023-03-04T08:42:46.666Z,99756.27
2023-03-04T08:45:14.490Z,99754.60
2023-03-04T08:47:42.230Z,99754.00
2023-03-04T08:50:10.748Z,99753.41
2023-03-04T08:52:38.461Z,99752.21
2023-03-04T08:55:06.686Z,99752.79
2023-03-04T08:57:34.355Z,99753.73
2023-03-04T09:00:02.103Z,99747.49
2023-03-04T09:02:29.785Z,99752.61
2023-03-04T09:04:57.491Z,99749.65
2023-03-04T09:07:25.234Z,99753.23
2023-03-04T09:09:52.952Z,99753.70
2023-03-04T09:12:20.768Z,99747.61
2023-03-04T09:14:55.553Z,99744.67
2023-03-04T09:17:29.198Z,99746.73
2023-03-04T09:19:56.935Z,99741.86
2023-03-04T09:22:24.896Z,99737.35
2023-03-04T09:24:52.553Z,99737.33
2023-03-04T09:27:20.350Z,99730.42
2023-03-04T09:29:48.159Z,99728.43
2023-03-04T09:32:15.953Z,99726.54
2023-03-04T09:34:43.710Z,99726.23
2023-03-04T09:37:11.436Z,99720.94
2023-03-04T09:39:39.542Z,99718.16
2023-03-04T09:42:10.385Z,99713.90
2023-03-04T09:44:41.397Z,99706.06
2023-03-04T09:47:16.072Z,99702.83
2023-03-04T09:49:56.348Z,99701.79
2023-03-04T09:52:37.878Z,99693.98
2023-03-04T09:55:13.325Z,99693.50
2023-03-04T09:57:57.314Z,99693.84
2023-03-04T10:00:34.753Z,99692.84
2023-03-04T10:03:25.605Z,99690.79
2023-03-04T10:06:04.766Z,99677.93
2023-03-04T10:09:01.493Z,99673.26
2023-03-04T10:11:59.590Z,99671.60
2023-03-04T10:14:35.344Z,99667.98
2023-03-04T10:17:06.615Z,99666.59
2023-03-04T10:19:56.134Z,99667.86
2023-03-04T10:22:33.142Z,99659.88
2023-03-04T10:25:15.981Z,99657.86
2023-03-04T10:27:50.527Z,99653.54
2023-03-04T10:30:38.368Z,99650.00
2023-03-04T10:33:22.303Z,99648.08
2023-03-04T10:36:00.499Z,99654.09
2023-03-04T10:38:34.699Z,99655.86
2023-03-04T10:41:13.224Z,99644.65
2023-03-04T10:43:46.690Z,99635.84
2023-03-04T10:46:15.667Z,99634.58
2023-03-04T10:48:44.848Z,99629.02
2023-03-04T10:51:21.432Z,99629.16
2023-03-04T10:53:52.996Z,99622.30
2023-03-04T10:56:39.220Z,99623.23
2023-03-04T10:59:25.738Z,99618.81
2023-03-04T11:01:54.090Z,99617.23
2023-03-04T11:04:27.090Z,99616.48
2023-03-04T11:06:54.835Z,99616.08
2023-03-04T11:09:28.553Z,99614.90
2023-03-04T11:12:00.002Z,99611.45
2023-03-04T11:14:34.701Z,99617.88
2023-03-04T11:17:17.037Z,99611.33
2023-03-04T11:19:50.045Z,99614.86
2023-03-04T11:22:22.180Z,99618.11
2023-03-04T11:24:59.622Z,99615.29
2023-03-04T11:27:45.779Z,99613.20
2023-03-04T11:30:25.723Z,99615.55
2023-03-04T11:32:58.044Z,99606.34
2023-03-04T11:35:33.073Z,99603.91
2023-03-04T11:38:09.279Z,99602.13
2023-03-04T11:40:43.361Z,99602.17
2023-03-04T11:43:19.283Z,99598.09
2023-03-04T11:45:49.695Z,99592.84
2023-03-04T11:48:26.567Z,99593.02
2023-03-04T11:51:01.618Z,99592.66
2023-03-04T11:53:44.474Z,99592.64
2023-03-04T11:56:12.403Z,99595.29
2023-03-04T11:59:15.573Z,99591.05
2023-03-04T12:02:11.208Z,99592.27
2023-03-04T12:04:54.184Z,99584.14
2023-03-04T12:07:43.675Z,99579.98
2023-03-04T12:10:39.987Z,99577.14
2023-03-04T12:13:38.481Z,99571.58
2023-03-04T12:16:19.870Z,99575.15
2023-03-04T12:19:06.561Z,99564.27
2023-03-04T12:21:58.788Z,99569.35
2023-03-04T12:24:49.080Z,99563.84
2023-03-04T12:27:30.232Z,99563.10
2023-03-04T12:30:26.810Z,99561.17
2023-03-04T12:33:16.109Z,99566.32
2023-03-04T12:35:58.725Z,99560.06
2023-03-04T12:38:57.496Z,99554.72
2023-03-04T12:41:43.394Z,99553.21
2023-03-04T12:44:17.219Z,99546.69
2023-03-04T12:47:06.917Z,99552.68
2023-03-04T12:50:01.079Z,99548.14
2023-03-04T12:52:31.525Z,99563.09
2023-03-04T12:55:04.143Z,99576.52
2023-03-04T12:57:33.339Z,99585.37
2023-03-04T13:00:13.165Z,99580.30
2023-03-04T13:03:10.362Z,99589.48
2023-03-04T13:06:03.878Z,99590.68
2023-03-04T13:08:42.608Z,99583.04
2023-03-04T13:11:29.033Z,99584.31
2023-03-04T13:14:23.296Z,99576.64
2023-03-04T13:16:57.385Z,99577.77
2023-03-04T13:19:47.050Z,99576.33
2023-03-04T13:22:33.366Z,99577.61
2023-03-04T13:25:29.108Z,99580.89
2023-03-04T13:28:05.679Z,99586.95
2023-03-04T13:30:37.010Z,99581.88
2023-03-04T13:33:16.417Z,99570.55
2023-03-04T13:35:47.298Z,99565.13
2023-03-04T13:38:34.869Z,99567.63
2023-03-04T13:41:47.075Z,99572.36
2023-03-04T13:44:33.199Z,99574.88
2023-03-04T13:47:18.718Z,99569.84
2023-03-04T13:49:46.665Z,99572.05
2023-03-04T13:52:53.457Z,99573.58
2023-03-04T13:55:36.135Z,99573.84
2023-03-04T13:58:27.071Z,99575.77
2023-03-04T14:00:55.973Z,99574.23
2023-03-04T14:03:29.824Z,99568.81
2023-03-04T14:06:18.380Z,99567.70
2023-03-04T14:08:47.558Z,99563.48
2023-03-04T14:11:38.698Z,99565.02
2023-03-04T14:14:08.871Z,99564.34
2023-03-04T14:16:40.867Z,99568.64
2023-03-04T14:19:17.059Z,99571.04
2023-03-04T14:21:47.160Z,99564.34
2023-03-04T14:24:18.471Z,99562.23
2023-03-04T14:26:47.241Z,99559.00
2023-03-04T14:29:25.302Z,99560.96
2023-03-04T14:31:54.443Z,99555.98
2023-03-04T14:34:36.485Z,99556.61
2023-03-04T14:37:19.516Z,99558.17
2023-03-04T14:39:51.339Z,99563.88
2023-03-04T14:42:21.677Z,99562.32
2023-03-04T14:44:51.241Z,99563.16
2023-03-04T14:47:34.881Z,99564.45
2023-03-04T14:50:06.245Z,99569.36
2023-03-04T14:52:38.486Z,99574.77
2023-03-04T14:55:15.195Z,99575.27
2023-03-04T14:57:44.658Z,99575.63
2023-03-04T15:00:27.213Z,99575.06
2023-03-04T15:02:57.595Z,99574.63
2023-03-04T15:05:36.382Z,99577.51
2023-03-04T15:08:15.586Z,99575.67
2023-03-04T15:10:43.471Z,99573.86
2023-03-04T15:13:12.162Z,99577.08
2023-03-04T15:15:45.212Z,99578.57
2023-03-04T15:18:26.419Z,99578.02
2023-03-04T15:20:55.621Z,99585.98
2023-03-04T15:23:23.540Z,99590.50
2023-03-04T15:25:54.204Z,99590.77
2023-03-04T15:28:22.545Z,99597.77
2023-03-04T15:30:50.779Z,99596.81
2023-03-04T15:33:21.142Z,99605.23
2023-03-04T15:36:00.766Z,99605.89
2023-03-04T15:38:29.352Z,99605.84
2023-03-04T15:40:59.482Z,99606.85
2023-03-04T15:43:29.894Z,99614.07
2023-03-04T15:45:57.598Z,99614.08
2023-03-04T15:48:25.281Z,99620.31
2023-03-04T15:51:03.706Z,99622.38
2023-03-04T15:53:35.661Z,99635.38
2023-03-04T15:56:05.145Z,99638.73
2023-03-04T15:58:35.052Z,99658.66
2023-03-04T16:01:03.357Z,99665.79
2023-03-04T16:03:31.189Z,99673.48
2023-03-04T16:05:58.992Z,99674.05
2023-03-04T16:08:26.785Z,99682.02
2023-03-04T16:10:54.832Z,99684.58
2023-03-04T16:13:24.114Z,99686.97
2023-03-04T16:15:52.112Z,99691.20
2023-03-04T16:18:20.284Z,99700.87
2023-03-04T16:20:49.798Z,99694.92
2023-03-04T16:23:23.512Z,99706.25
2023-03-04T16:25:55.868Z,99711.62
2023-03-04T16:28:23.834Z,99722.18
2023-03-04T16:30:51.703Z,99736.98
2023-03-04T16:33:19.705Z,99743.34
2023-03-04T16:35:47.678Z,99750.23
2023-03-04T16:38:26.094Z,99761.23
2023-03-04T16:40:58.602Z,99764.21
2023-03-04T16:43:26.545Z,99770.32
2023-03-04T16:45:54.874Z,99773.70
2023-03-04T16:48:22.738Z,99783.41
2023-03-04T16:50:50.589Z,99786.40
2023-03-04T16:53:27.912Z,99795.75
2023-03-04T16:55:58.426Z,99797.83
2023-03-04T16:58:26.285Z,99801.36
2023-03-04T17:00:54.803Z,99805.91
2023-03-04T17:03:22.704Z,99803.14
2023-03-04T17:05:50.357Z,99817.30
2023-03-04T17:08:18.156Z,99818.60
2023-03-04T17:10:46.148Z,99829.23
2023-03-04T17:13:13.871Z,99839.02
2023-03-04T17:15:45.536Z,99844.81
2023-03-04T17:18:13.356Z,99842.08
2023-03-04T17:20:41.126Z,99849.66
2023-03-04T17:23:09.299Z,99851.61
2023-03-04T17:25:37.169Z,99853.59
2023-03-04T17:28:05.132Z,99861.64
2023-03-04T17:30:32.892Z,99867.33
2023-03-04T17:33:00.623Z,99869.14
2023-03-04T17:35:28.410Z,99874.72
2023-03-04T17:37:56.564Z,99877.67
2023-03-04T17:40:24.467Z,99883.00
2023-03-04T17:42:52.259Z,99881.84
2023-03-04T17:45:19.961Z,99884.58
2023-03-04T17:47:47.649Z,99883.07
2023-03-04T17:50:15.426Z,99885.40
2023-03-04T17:52:43.212Z,99882.63
2023-03-04T17:55:11.279Z,99881.54
2023-03-04T17:57:39.004Z,99884.67
2023-03-04T18:00:07.410Z,99891.81
2023-03-04T18:02:35.459Z,99900.30
2023-03-04T18:05:06.691Z,99908.35
2023-03-04T18:07:34.412Z,99914.20
2023-03-04T18:10:02.322Z,99915.92
2023-03-04T18:12:30.107Z,99915.31
2023-03-04T18:14:57.894Z,99918.44
2023-03-04T18:17:26.608Z,99917.45
2023-03-04T18:19:55.177Z,99927.06
2023-03-04T18:22:22.868Z,99933.06
2023-03-04T18:24:50.663Z,99939.37
2023-03-04T18:27:18.505Z,99941.25
2023-03-04T18:29:47.299Z,99937.23
2023-03-04T18:32:15.063Z,99940.48
2023-03-04T18:34:43.390Z,99942.20
2023-03-04T18:37:11.101Z,99940.69
2023-03-04T18:39:38.906Z,99946.41
2023-03-04T18:42:06.627Z,99944.36
2023-03-04T18:44:34.395Z,99946.78
2023-03-04T18:47:03.127Z,99953.58
2023-03-04T18:49:30.909Z,99954.33
2023-03-04T18:51:58.628Z,99956.22
2023-03-04T18:54:26.563Z,99958.66
2023-03-04T18:57:01.920Z,99957.05
2023-03-04T18:59:46.318Z,99954.38
2023-03-04T19:02:22.209Z,99960.70
2023-03-04T19:04:50.923Z,99963.98
2023-03-04T19:07:18.716Z,99964.88
2023-03-04T19:09:46.471Z,99972.52
2023-03-04T19:12:14.163Z,99974.31
2023-03-04T19:14:41.891Z,99977.23
2023-03-04T19:17:09.835Z,99982.27
2023-03-04T19:19:37.581Z,99978.85
2023-03-04T19:22:06.760Z,99987.73
2023-03-04T19:24:35.110Z,99991.70
2023-03-04T19:27:02.934Z,99995.21
2023-03-04T19:29:30.975Z,100005.52
2023-03-04T19:31:58.737Z,100005.05
2023-03-04T19:34:26.633Z,100004.05
2023-03-04T19:36:54.369Z,100005.95
2023-03-04T19:39:22.184Z,100003.56
2023-03-04T19:41:50.089Z,100010.74
2023-03-04T19:44:18.570Z,100015.61
2023-03-04T19:46:46.415Z,100016.43
2023-03-04T19:49:14.090Z,100013.83
2023-03-04T19:51:42.721Z,100018.67
2023-03-04T19:54:10.925Z,100021.34
2023-03-04T19:56:38.819Z,100023.23
2023-03-04T19:59:06.633Z,100024.01
2023-03-04T20:01:37.244Z,100020.55
2023-03-04T20:04:10.662Z,100023.91
2023-03-04T20:06:41.770Z,100025.00
2023-03-04T20:09:10.252Z,100027.25
2023-03-04T20:11:50.850Z,100025.19
2023-03-04T20:14:24.213Z,100023.39
2023-03-04T20:16:52.139Z,100027.60
2023-03-04T20:19:20.062Z,100026.22
2023-03-04T20:21:47.994Z,100027.63
2023-03-04T20:24:15.898Z,100030.92
2023-03-04T20:26:43.674Z,100035.52
2023-03-04T20:29:11.865Z,100032.25
2023-03-04T20:31:39.617Z,100034.77
2023-03-04T20:34:09.647Z,100035.42
2023-03-04T20:36:39.380Z,100038.80
2023-03-04T20:39:25.846Z,100038.00
2023-03-04T20:41:59.773Z,100035.84
2023-03-04T20:44:28.006Z,100032.84
2023-03-04T20:46:55.852Z,100033.08
2023-03-04T20:49:27.299Z,100028.27
2023-03-04T20:52:06.138Z,100027.80
2023-03-04T20:54:34.994Z,100031.85
2023-03-04T20:57:06.750Z,100035.28
2023-03-04T20:59:37.882Z,100035.05
2023-03-04T21:02:08.415Z,100034.48
2023-03-04T21:04:36.162Z,100031.67
2023-03-04T21:07:04.199Z,100034.66
2023-03-04T21:09:32.045Z,100033.10
2023-03-04T21:12:01.099Z,100032.17
2023-03-04T21:14:31.027Z,100034.23
2023-03-04T21:17:02.528Z,100035.05
2023-03-04T21:19:33.186Z,100038.20
2023-03-04T21:22:01.544Z,100035.21
2023-03-04T21:24:35.625Z,100035.84
2023-03-04T21:27:04.563Z,100035.86
2023-03-04T21:29:32.792Z,100036.27
2023-03-04T21:32:20.918Z,100037.90
2023-03-04T21:34:52.589Z,100032.79
2023-03-04T21:37:21.651Z,100036.03
2023-03-04T21:39:49.514Z,100040.60
2023-03-04T21:42:17.789Z,100040.33
2023-03-04T21:44:50.486Z,100042.27
2023-03-04T21:47:22.032Z,100039.90
2023-03-04T21:49:50.708Z,100038.64
2023-03-04T21:52:20.301Z,100039.69
2023-03-04T21:54:48.636Z,100039.73
2023-03-04T21:57:17.055Z,100035.74
2023-03-04T21:59:45.265Z,100036.36
2023-03-04T22:02:18.816Z,100035.66
2023-03-04T22:04:47.478Z,100039.87
2023-03-04T22:07:15.569Z,100040.67
2023-03-04T22:09:43.308Z,100036.77
2023-03-04T22:12:11.735Z,100035.20
2023-03-04T22:14:39.414Z,100038.74
2023-03-04T22:17:07.235Z,100038.88
2023-03-04T22:19:35.116Z,100035.46
2023-03-04T22:22:02.820Z,100035.33
2023-03-04T22:24:30.633Z,100033.88
2023-03-04T22:26:59.843Z,100035.41
2023-03-04T22:29:27.756Z,100033.14
2023-03-04T22:31:55.614Z,100038.85
2023-03-04T22:34:23.855Z,100036.46
2023-03-04T22:36:52.054Z,100036.39
2023-03-04T22:39:20.203Z,100037.61
2023-03-04T22:41:48.326Z,100034.35
2023-03-04T22:44:16.050Z,100033.83
2023-03-04T22:46:44.534Z,100035.38
2023-03-04T22:49:13.993Z,100036.61
2023-03-04T22:51:43.918Z,100036.59
2023-03-04T22:54:12.812Z,100036.92
2023-03-04T22:56:40.692Z,100031.19
2023-03-04T22:59:08.412Z,100032.59
2023-03-04T23:01:37.108Z,100030.21
2023-03-04T23:04:05.049Z,100029.60
2023-03-04T23:06:32.838Z,100031.33
2023-03-04T23:09:01.215Z,100036.77
2023-03-04T23:11:31.416Z,100037.64
2023-03-04T23:14:02.054Z,100037.44
2023-03-04T23:16:29.911Z,100036.27
2023-03-04T23:18:59.411Z,100029.83
2023-03-04T23:35:04.265Z,100027.01
2023-03-04T23:37:32.032Z,100027.02
2023-03-04T23:39:59.732Z,100027.06
2023-03-04T23:42:27.441Z,100023.82
2023-03-04T23:44:55.174Z,100023.69
2023-03-04T23:47:22.957Z,100018.41
2023-03-04T23:49:50.654Z,100020.74
2023-03-04T23:52:18.352Z,100018.16
2023-03-04T23:54:46.036Z,100019.48
2023-03-04T23:57:13.802Z,100019.27
2023-03-04T23:59:41.585Z,100018.36
